sensor_id;sensor_type;location;lat;lon;timestamp;P1;durP1;ratioP1;P2;durP2;ratioP2
4448;SDS011;2237;51.870;6.160;2022-10-18T00:02:01;24.30;;;9.77;;
4448;SDS011;2237;51.870;6.160;2022-10-18T00:04:27;22.85;;;10.52;;
4448;SDS011;2237;51.870;6.160;2022-10-18T00:06:54;21.80;;;9.32;;
4448;SDS011;2237;51.870;6.160;2022-10-18T00:09:20;25.20;;;10.23;;
4448;SDS011;2237;51.870;6.160;2022-10-18T00:11:46;15.93;;;8.93;;
4448;SDS011;2237;51.870;6.160;2022-10-18T00:14:13;21.38;;;10.05;;
4448;SDS011;2237;51.870;6.160;2022-10-18T00:16:40;17.85;;;9.05;;
4448;SDS011;2237;51.870;6.160;2022-10-18T00:19:06;23.23;;;9.63;;
4448;SDS011;2237;51.870;6.160;2022-10-18T00:21:32;21.20;;;9.60;;
4448;SDS011;2237;51.870;6.160;2022-10-18T00:23:59;19.15;;;9.60;;
4448;SDS011;2237;51.870;6.160;2022-10-18T00:26:26;19.63;;;10.32;;
4448;SDS011;2237;51.870;6.160;2022-10-18T00:28:55;25.60;;;10.55;;
4448;SDS011;2237;51.870;6.160;2022-10-18T00:31:27;19.58;;;9.73;;
4448;SDS011;2237;51.870;6.160;2022-10-18T00:33:56;15.90;;;9.18;;
4448;SDS011;2237;51.870;6.160;2022-10-18T00:36:28;21.67;;;10.07;;
4448;SDS011;2237;51.870;6.160;2022-10-18T00:38:55;17.30;;;9.35;;
4448;SDS011;2237;51.870;6.160;2022-10-18T00:41:24;22.40;;;10.23;;
4448;SDS011;2237;51.870;6.160;2022-10-18T00:46:33;19.38;;;9.77;;
4448;SDS011;2237;51.870;6.160;2022-10-18T00:49:05;22.10;;;10.73;;
4448;SDS011;2237;51.870;6.160;2022-10-18T00:51:45;23.27;;;10.13;;
4448;SDS011;2237;51.870;6.160;2022-10-18T00:54:21;17.33;;;9.50;;
4448;SDS011;2237;51.870;6.160;2022-10-18T00:56:48;23.98;;;11.00;;
4448;SDS011;2237;51.870;6.160;2022-10-18T00:59:16;16.48;;;9.65;;
4448;SDS011;2237;51.870;6.160;2022-10-18T01:01:43;28.67;;;10.13;;
4448;SDS011;2237;51.870;6.160;2022-10-18T01:04:11;22.08;;;9.73;;
4448;SDS011;2237;51.870;6.160;2022-10-18T01:06:51;20.70;;;9.93;;
4448;SDS011;2237;51.870;6.160;2022-10-18T01:09:27;21.90;;;10.20;;
4448;SDS011;2237;51.870;6.160;2022-10-18T01:12:20;19.27;;;10.25;;
4448;SDS011;2237;51.870;6.160;2022-10-18T01:17:46;20.42;;;9.52;;
4448;SDS011;2237;51.870;6.160;2022-10-18T01:20:40;19.00;;;9.35;;
4448;SDS011;2237;51.870;6.160;2022-10-18T01:23:19;19.23;;;9.07;;
4448;SDS011;2237;51.870;6.160;2022-10-18T01:31:31;16.58;;;9.10;;
4448;SDS011;2237;51.870;6.160;2022-10-18T01:34:07;16.17;;;9.40;;
4448;SDS011;2237;51.870;6.160;2022-10-18T01:36:39;20.50;;;9.38;;
4448;SDS011;2237;51.870;6.160;2022-10-18T01:39:10;18.10;;;9.40;;
4448;SDS011;2237;51.870;6.160;2022-10-18T01:41:42;16.35;;;8.35;;
4448;SDS011;2237;51.870;6.160;2022-10-18T01:44:11;15.00;;;9.05;;
4448;SDS011;2237;51.870;6.160;2022-10-18T01:46:42;16.98;;;8.63;;
4448;SDS011;2237;51.870;6.160;2022-10-18T01:49:11;17.35;;;8.52;;
4448;SDS011;2237;51.870;6.160;2022-10-18T01:51:38;18.40;;;8.95;;
4448;SDS011;2237;51.870;6.160;2022-10-18T01:54:04;17.05;;;9.20;;
4448;SDS011;2237;51.870;6.160;2022-10-18T02:05:13;17.52;;;8.85;;
4448;SDS011;2237;51.870;6.160;2022-10-18T02:10:45;14.95;;;8.32;;
4448;SDS011;2237;51.870;6.160;2022-10-18T02:13:13;16.13;;;8.63;;
4448;SDS011;2237;51.870;6.160;2022-10-18T02:15:44;16.53;;;8.60;;
4448;SDS011;2237;51.870;6.160;2022-10-18T02:18:15;18.63;;;9.38;;
4448;SDS011;2237;51.870;6.160;2022-10-18T02:20:49;19.80;;;10.48;;
4448;SDS011;2237;51.870;6.160;2022-10-18T02:23:18;21.15;;;9.43;;
4448;SDS011;2237;51.870;6.160;2022-10-18T02:25:48;18.55;;;9.15;;
4448;SDS011;2237;51.870;6.160;2022-10-18T02:28:16;14.98;;;8.20;;
4448;SDS011;2237;51.870;6.160;2022-10-18T02:31:05;21.25;;;9.50;;
4448;SDS011;2237;51.870;6.160;2022-10-18T02:33:31;17.15;;;9.25;;
4448;SDS011;2237;51.870;6.160;2022-10-18T02:36:14;15.80;;;8.93;;
4448;SDS011;2237;51.870;6.160;2022-10-18T02:38:47;17.40;;;8.43;;
4448;SDS011;2237;51.870;6.160;2022-10-18T02:41:23;20.60;;;9.43;;
4448;SDS011;2237;51.870;6.160;2022-10-18T02:43:51;18.63;;;9.10;;
4448;SDS011;2237;51.870;6.160;2022-10-18T02:46:18;18.20;;;8.50;;
4448;SDS011;2237;51.870;6.160;2022-10-18T02:48:45;17.58;;;9.68;;
4448;SDS011;2237;51.870;6.160;2022-10-18T02:51:11;14.15;;;8.43;;
4448;SDS011;2237;51.870;6.160;2022-10-18T02:53:38;21.13;;;10.57;;
4448;SDS011;2237;51.870;6.160;2022-10-18T02:56:04;20.05;;;10.25;;
4448;SDS011;2237;51.870;6.160;2022-10-18T02:58:30;23.67;;;11.43;;
4448;SDS011;2237;51.870;6.160;2022-10-18T03:00:57;23.67;;;10.85;;
4448;SDS011;2237;51.870;6.160;2022-10-18T03:03:23;21.10;;;10.20;;
4448;SDS011;2237;51.870;6.160;2022-10-18T03:05:50;17.23;;;9.55;;
4448;SDS011;2237;51.870;6.160;2022-10-18T03:08:17;20.48;;;10.07;;
4448;SDS011;2237;51.870;6.160;2022-10-18T03:10:44;22.70;;;10.70;;
4448;SDS011;2237;51.870;6.160;2022-10-18T03:13:12;19.60;;;10.57;;
4448;SDS011;2237;51.870;6.160;2022-10-18T03:15:38;22.95;;;11.45;;
4448;SDS011;2237;51.870;6.160;2022-10-18T03:18:05;21.65;;;11.02;;
4448;SDS011;2237;51.870;6.160;2022-10-18T03:20:32;25.88;;;11.75;;
4448;SDS011;2237;51.870;6.160;2022-10-18T03:22:59;36.10;;;13.52;;
4448;SDS011;2237;51.870;6.160;2022-10-18T03:25:25;27.15;;;12.88;;
4448;SDS011;2237;51.870;6.160;2022-10-18T03:27:51;27.58;;;12.00;;
4448;SDS011;2237;51.870;6.160;2022-10-18T03:30:18;29.92;;;12.57;;
4448;SDS011;2237;51.870;6.160;2022-10-18T03:32:44;24.88;;;12.57;;
4448;SDS011;2237;51.870;6.160;2022-10-18T03:35:10;31.58;;;13.70;;
4448;SDS011;2237;51.870;6.160;2022-10-18T03:37:37;32.92;;;13.93;;
4448;SDS011;2237;51.870;6.160;2022-10-18T03:40:03;75.68;;;17.20;;
4448;SDS011;2237;51.870;6.160;2022-10-18T03:42:30;62.72;;;16.65;;
4448;SDS011;2237;51.870;6.160;2022-10-18T03:44:57;53.15;;;15.90;;
4448;SDS011;2237;51.870;6.160;2022-10-18T03:47:23;42.60;;;15.85;;
4448;SDS011;2237;51.870;6.160;2022-10-18T03:49:50;48.95;;;15.32;;
4448;SDS011;2237;51.870;6.160;2022-10-18T03:52:22;197.55;;;19.75;;
4448;SDS011;2237;51.870;6.160;2022-10-18T03:54:48;203.18;;;19.15;;
4448;SDS011;2237;51.870;6.160;2022-10-18T03:57:14;213.73;;;18.08;;
4448;SDS011;2237;51.870;6.160;2022-10-18T03:59:41;142.27;;;16.77;;
4448;SDS011;2237;51.870;6.160;2022-10-18T04:02:07;305.20;;;19.05;;
4448;SDS011;2237;51.870;6.160;2022-10-18T04:04:33;218.07;;;16.90;;
4448;SDS011;2237;51.870;6.160;2022-10-18T04:07:00;271.77;;;17.67;;
4448;SDS011;2237;51.870;6.160;2022-10-18T04:09:26;122.05;;;15.05;;
4448;SDS011;2237;51.870;6.160;2022-10-18T04:11:52;229.48;;;16.30;;
4448;SDS011;2237;51.870;6.160;2022-10-18T04:14:19;170.18;;;16.88;;
4448;SDS011;2237;51.870;6.160;2022-10-18T04:16:46;128.73;;;15.10;;
4448;SDS011;2237;51.870;6.160;2022-10-18T04:19:12;345.92;;;18.17;;
4448;SDS011;2237;51.870;6.160;2022-10-18T04:21:39;225.30;;;16.77;;
4448;SDS011;2237;51.870;6.160;2022-10-18T04:24:05;105.53;;;16.30;;
4448;SDS011;2237;51.870;6.160;2022-10-18T04:26:32;184.30;;;15.60;;
4448;SDS011;2237;51.870;6.160;2022-10-18T04:28:58;92.90;;;15.15;;
4448;SDS011;2237;51.870;6.160;2022-10-18T04:31:25;283.67;;;20.15;;
4448;SDS011;2237;51.870;6.160;2022-10-18T04:33:51;175.18;;;18.05;;
4448;SDS011;2237;51.870;6.160;2022-10-18T04:36:18;302.90;;;21.88;;
4448;SDS011;2237;51.870;6.160;2022-10-18T04:38:44;148.52;;;18.85;;
4448;SDS011;2237;51.870;6.160;2022-10-18T04:41:10;169.70;;;19.27;;
4448;SDS011;2237;51.870;6.160;2022-10-18T04:43:37;76.10;;;17.13;;
4448;SDS011;2237;51.870;6.160;2022-10-18T04:46:03;83.30;;;15.55;;
4448;SDS011;2237;51.870;6.160;2022-10-18T04:48:29;150.57;;;18.15;;
4448;SDS011;2237;51.870;6.160;2022-10-18T04:50:56;80.38;;;15.38;;
4448;SDS011;2237;51.870;6.160;2022-10-18T04:53:22;157.32;;;19.55;;
4448;SDS011;2237;51.870;6.160;2022-10-18T04:55:49;108.25;;;17.00;;
4448;SDS011;2237;51.870;6.160;2022-10-18T04:58:16;291.05;;;19.85;;
4448;SDS011;2237;51.870;6.160;2022-10-18T05:00:43;209.93;;;18.67;;
4448;SDS011;2237;51.870;6.160;2022-10-18T05:03:10;373.90;;;21.52;;
4448;SDS011;2237;51.870;6.160;2022-10-18T05:05:37;464.23;;;25.83;;
4448;SDS011;2237;51.870;6.160;2022-10-18T05:08:24;343.27;;;22.58;;
4448;SDS011;2237;51.870;6.160;2022-10-18T05:10:50;435.50;;;24.02;;
4448;SDS011;2237;51.870;6.160;2022-10-18T05:13:16;459.80;;;23.30;;
4448;SDS011;2237;51.870;6.160;2022-10-18T05:15:44;413.20;;;22.98;;
4448;SDS011;2237;51.870;6.160;2022-10-18T05:18:11;391.60;;;21.58;;
4448;SDS011;2237;51.870;6.160;2022-10-18T05:20:38;183.65;;;18.08;;
4448;SDS011;2237;51.870;6.160;2022-10-18T05:23:04;325.10;;;20.63;;
4448;SDS011;2237;51.870;6.160;2022-10-18T05:25:31;341.17;;;20.95;;
4448;SDS011;2237;51.870;6.160;2022-10-18T05:27:58;237.50;;;19.85;;
4448;SDS011;2237;51.870;6.160;2022-10-18T05:30:36;139.70;;;17.02;;
4448;SDS011;2237;51.870;6.160;2022-10-18T05:33:04;268.23;;;19.10;;
4448;SDS011;2237;51.870;6.160;2022-10-18T05:35:31;282.77;;;22.40;;
4448;SDS011;2237;51.870;6.160;2022-10-18T05:37:57;105.65;;;19.13;;
4448;SDS011;2237;51.870;6.160;2022-10-18T05:40:24;235.82;;;21.88;;
4448;SDS011;2237;51.870;6.160;2022-10-18T05:42:50;142.15;;;17.67;;
4448;SDS011;2237;51.870;6.160;2022-10-18T05:45:17;162.77;;;19.52;;
4448;SDS011;2237;51.870;6.160;2022-10-18T05:47:44;149.23;;;20.13;;
4448;SDS011;2237;51.870;6.160;2022-10-18T05:50:10;96.45;;;17.77;;
4448;SDS011;2237;51.870;6.160;2022-10-18T05:52:37;81.47;;;18.50;;
4448;SDS011;2237;51.870;6.160;2022-10-18T05:55:03;149.07;;;19.48;;
4448;SDS011;2237;51.870;6.160;2022-10-18T05:57:30;316.17;;;23.60;;
4448;SDS011;2237;51.870;6.160;2022-10-18T05:59:58;105.95;;;18.42;;
4448;SDS011;2237;51.870;6.160;2022-10-18T06:02:24;133.38;;;19.63;;
4448;SDS011;2237;51.870;6.160;2022-10-18T06:04:50;278.30;;;20.40;;
4448;SDS011;2237;51.870;6.160;2022-10-18T06:07:17;244.93;;;20.73;;
4448;SDS011;2237;51.870;6.160;2022-10-18T06:09:43;163.18;;;19.30;;
4448;SDS011;2237;51.870;6.160;2022-10-18T06:12:09;225.27;;;19.27;;
4448;SDS011;2237;51.870;6.160;2022-10-18T06:14:36;268.35;;;20.48;;
4448;SDS011;2237;51.870;6.160;2022-10-18T06:17:02;252.55;;;19.42;;
4448;SDS011;2237;51.870;6.160;2022-10-18T06:19:29;249.73;;;19.17;;
4448;SDS011;2237;51.870;6.160;2022-10-18T06:21:55;276.25;;;21.83;;
4448;SDS011;2237;51.870;6.160;2022-10-18T06:24:22;184.85;;;16.10;;
4448;SDS011;2237;51.870;6.160;2022-10-18T06:26:48;335.17;;;20.92;;
4448;SDS011;2237;51.870;6.160;2022-10-18T06:29:15;190.15;;;15.77;;
4448;SDS011;2237;51.870;6.160;2022-10-18T06:31:41;233.30;;;16.30;;
4448;SDS011;2237;51.870;6.160;2022-10-18T06:34:07;312.00;;;19.63;;
4448;SDS011;2237;51.870;6.160;2022-10-18T06:36:34;224.13;;;14.30;;
4448;SDS011;2237;51.870;6.160;2022-10-18T06:39:00;255.02;;;17.30;;
4448;SDS011;2237;51.870;6.160;2022-10-18T06:41:27;250.13;;;18.45;;
4448;SDS011;2237;51.870;6.160;2022-10-18T06:43:54;182.10;;;16.77;;
4448;SDS011;2237;51.870;6.160;2022-10-18T06:46:22;173.60;;;15.80;;
4448;SDS011;2237;51.870;6.160;2022-10-18T06:48:49;116.55;;;14.50;;
4448;SDS011;2237;51.870;6.160;2022-10-18T06:51:16;159.45;;;16.52;;
4448;SDS011;2237;51.870;6.160;2022-10-18T06:53:43;250.90;;;21.77;;
4448;SDS011;2237;51.870;6.160;2022-10-18T06:58:50;153.50;;;14.63;;
4448;SDS011;2237;51.870;6.160;2022-10-18T07:01:17;133.07;;;15.27;;
4448;SDS011;2237;51.870;6.160;2022-10-18T07:03:45;177.82;;;16.45;;
4448;SDS011;2237;51.870;6.160;2022-10-18T07:06:13;183.30;;;17.42;;
4448;SDS011;2237;51.870;6.160;2022-10-18T07:08:42;92.20;;;13.57;;
4448;SDS011;2237;51.870;6.160;2022-10-18T07:11:13;80.78;;;14.25;;
4448;SDS011;2237;51.870;6.160;2022-10-18T07:13:41;69.72;;;13.80;;
4448;SDS011;2237;51.870;6.160;2022-10-18T07:16:12;51.45;;;13.90;;
4448;SDS011;2237;51.870;6.160;2022-10-18T07:18:50;54.63;;;13.90;;
4448;SDS011;2237;51.870;6.160;2022-10-18T07:21:17;58.08;;;12.95;;
4448;SDS011;2237;51.870;6.160;2022-10-18T07:23:45;38.80;;;12.85;;
4448;SDS011;2237;51.870;6.160;2022-10-18T07:26:17;66.35;;;13.73;;
4448;SDS011;2237;51.870;6.160;2022-10-18T07:29:07;48.67;;;13.02;;
4448;SDS011;2237;51.870;6.160;2022-10-18T07:31:35;64.97;;;13.82;;
4448;SDS011;2237;51.870;6.160;2022-10-18T07:34:04;35.70;;;12.43;;
4448;SDS011;2237;51.870;6.160;2022-10-18T07:36:32;32.33;;;12.10;;
4448;SDS011;2237;51.870;6.160;2022-10-18T07:38:58;68.55;;;13.55;;
4448;SDS011;2237;51.870;6.160;2022-10-18T07:41:25;45.53;;;13.10;;
4448;SDS011;2237;51.870;6.160;2022-10-18T07:43:52;45.53;;;11.40;;
4448;SDS011;2237;51.870;6.160;2022-10-18T07:46:19;97.88;;;15.32;;
4448;SDS011;2237;51.870;6.160;2022-10-18T07:48:47;61.90;;;13.45;;
4448;SDS011;2237;51.870;6.160;2022-10-18T07:51:14;45.42;;;13.45;;
4448;SDS011;2237;51.870;6.160;2022-10-18T07:53:41;43.55;;;13.45;;
4448;SDS011;2237;51.870;6.160;2022-10-18T07:56:08;45.92;;;13.48;;
4448;SDS011;2237;51.870;6.160;2022-10-18T07:58:41;34.35;;;12.27;;
4448;SDS011;2237;51.870;6.160;2022-10-18T08:01:08;33.88;;;12.60;;
4448;SDS011;2237;51.870;6.160;2022-10-18T08:03:35;29.85;;;12.40;;
4448;SDS011;2237;51.870;6.160;2022-10-18T08:06:02;33.33;;;12.45;;
4448;SDS011;2237;51.870;6.160;2022-10-18T08:08:33;31.17;;;12.05;;
4448;SDS011;2237;51.870;6.160;2022-10-18T08:11:03;30.52;;;11.85;;
4448;SDS011;2237;51.870;6.160;2022-10-18T08:13:30;34.85;;;13.00;;
4448;SDS011;2237;51.870;6.160;2022-10-18T08:16:04;30.13;;;12.48;;
4448;SDS011;2237;51.870;6.160;2022-10-18T08:18:34;31.33;;;12.07;;
4448;SDS011;2237;51.870;6.160;2022-10-18T08:21:02;29.83;;;11.82;;
4448;SDS011;2237;51.870;6.160;2022-10-18T08:23:30;28.73;;;12.45;;
4448;SDS011;2237;51.870;6.160;2022-10-18T08:25:59;26.23;;;12.23;;
4448;SDS011;2237;51.870;6.160;2022-10-18T08:28:27;29.67;;;12.02;;
4448;SDS011;2237;51.870;6.160;2022-10-18T08:30:54;26.95;;;11.23;;
4448;SDS011;2237;51.870;6.160;2022-10-18T08:33:20;24.33;;;11.10;;
4448;SDS011;2237;51.870;6.160;2022-10-18T08:35:53;23.80;;;9.98;;
4448;SDS011;2237;51.870;6.160;2022-10-18T08:38:21;28.73;;;10.80;;
4448;SDS011;2237;51.870;6.160;2022-10-18T08:40:47;25.10;;;11.23;;
4448;SDS011;2237;51.870;6.160;2022-10-18T08:45:47;24.15;;;9.73;;
4448;SDS011;2237;51.870;6.160;2022-10-18T08:48:20;24.55;;;8.10;;
4448;SDS011;2237;51.870;6.160;2022-10-18T08:50:54;13.85;;;6.45;;
4448;SDS011;2237;51.870;6.160;2022-10-18T08:56:32;24.17;;;5.97;;
4448;SDS011;2237;51.870;6.160;2022-10-18T08:59:00;20.10;;;6.43;;
4448;SDS011;2237;51.870;6.160;2022-10-18T09:01:43;17.77;;;6.10;;
4448;SDS011;2237;51.870;6.160;2022-10-18T09:04:32;14.65;;;6.10;;
4448;SDS011;2237;51.870;6.160;2022-10-18T09:07:22;13.75;;;5.82;;
4448;SDS011;2237;51.870;6.160;2022-10-18T09:10:05;11.43;;;5.20;;
4448;SDS011;2237;51.870;6.160;2022-10-18T09:12:48;14.55;;;5.95;;
4448;SDS011;2237;51.870;6.160;2022-10-18T09:15:34;12.60;;;5.15;;
4448;SDS011;2237;51.870;6.160;2022-10-18T09:20:51;12.77;;;4.43;;
4448;SDS011;2237;51.870;6.160;2022-10-18T09:24:09;11.35;;;4.65;;
4448;SDS011;2237;51.870;6.160;2022-10-18T09:26:30;10.35;;;4.53;;
4448;SDS011;2237;51.870;6.160;2022-10-18T09:31:51;12.90;;;3.28;;
4448;SDS011;2237;51.870;6.160;2022-10-18T09:37:07;9.82;;;4.00;;
4448;SDS011;2237;51.870;6.160;2022-10-18T09:39:38;8.65;;;3.13;;
4448;SDS011;2237;51.870;6.160;2022-10-18T09:42:10;9.95;;;2.60;;
4448;SDS011;2237;51.870;6.160;2022-10-18T09:44:55;14.05;;;3.00;;
4448;SDS011;2237;51.870;6.160;2022-10-18T09:48:39;11.98;;;3.08;;
4448;SDS011;2237;51.870;6.160;2022-10-18T09:50:30;9.73;;;2.78;;
4448;SDS011;2237;51.870;6.160;2022-10-18T09:56:00;8.23;;;2.67;;
4448;SDS011;2237;51.870;6.160;2022-10-18T09:58:43;16.27;;;3.40;;
4448;SDS011;2237;51.870;6.160;2022-10-18T10:01:12;12.02;;;2.67;;
4448;SDS011;2237;51.870;6.160;2022-10-18T10:03:43;7.25;;;2.95;;
4448;SDS011;2237;51.870;6.160;2022-10-18T10:08:41;8.43;;;2.75;;
4448;SDS011;2237;51.870;6.160;2022-10-18T10:14:14;4.65;;;1.70;;
4448;SDS011;2237;51.870;6.160;2022-10-18T10:16:47;8.30;;;2.25;;
4448;SDS011;2237;51.870;6.160;2022-10-18T10:22:23;9.48;;;2.38;;
4448;SDS011;2237;51.870;6.160;2022-10-18T10:25:05;10.40;;;2.20;;
4448;SDS011;2237;51.870;6.160;2022-10-18T10:27:33;9.88;;;2.45;;
4448;SDS011;2237;51.870;6.160;2022-10-18T10:30:22;5.75;;;2.10;;
4448;SDS011;2237;51.870;6.160;2022-10-18T10:32:49;6.93;;;2.17;;
4448;SDS011;2237;51.870;6.160;2022-10-18T10:35:21;6.60;;;2.42;;
4448;SDS011;2237;51.870;6.160;2022-10-18T10:38:21;7.38;;;1.88;;
4448;SDS011;2237;51.870;6.160;2022-10-18T10:40:50;8.60;;;1.30;;
4448;SDS011;2237;51.870;6.160;2022-10-18T10:46:11;9.15;;;1.48;;
4448;SDS011;2237;51.870;6.160;2022-10-18T10:48:50;8.05;;;0.95;;
4448;SDS011;2237;51.870;6.160;2022-10-18T10:51:44;4.65;;;0.82;;
4448;SDS011;2237;51.870;6.160;2022-10-18T10:54:33;6.47;;;1.10;;
4448;SDS011;2237;51.870;6.160;2022-10-18T10:57:05;8.97;;;0.80;;
4448;SDS011;2237;51.870;6.160;2022-10-18T10:59:46;5.47;;;1.02;;
4448;SDS011;2237;51.870;6.160;2022-10-18T11:04:44;4.65;;;0.60;;
4448;SDS011;2237;51.870;6.160;2022-10-18T11:07:30;6.53;;;1.02;;
4448;SDS011;2237;51.870;6.160;2022-10-18T11:17:38;7.28;;;0.70;;
4448;SDS011;2237;51.870;6.160;2022-10-18T11:20:11;2.47;;;0.60;;
4448;SDS011;2237;51.870;6.160;2022-10-18T11:23:09;4.22;;;0.90;;
4448;SDS011;2237;51.870;6.160;2022-10-18T11:32:36;5.13;;;0.85;;
4448;SDS011;2237;51.870;6.160;2022-10-18T11:34:47;7.30;;;1.55;;
4448;SDS011;2237;51.870;6.160;2022-10-18T11:45:53;7.00;;;0.80;;
4448;SDS011;2237;51.870;6.160;2022-10-18T11:48:36;3.30;;;0.70;;
4448;SDS011;2237;51.870;6.160;2022-10-18T11:59:56;3.60;;;0.60;;
4448;SDS011;2237;51.870;6.160;2022-10-18T12:05:20;4.45;;;0.65;;
4448;SDS011;2237;51.870;6.160;2022-10-18T12:07:55;3.28;;;0.68;;
4448;SDS011;2237;51.870;6.160;2022-10-18T12:10:35;7.68;;;0.75;;
4448;SDS011;2237;51.870;6.160;2022-10-18T12:13:33;4.63;;;1.42;;
4448;SDS011;2237;51.870;6.160;2022-10-18T12:16:06;4.32;;;0.50;;
4448;SDS011;2237;51.870;6.160;2022-10-18T12:18:35;2.47;;;0.57;;
4448;SDS011;2237;51.870;6.160;2022-10-18T12:21:09;5.40;;;0.90;;
4448;SDS011;2237;51.870;6.160;2022-10-18T12:23:41;6.25;;;0.77;;
4448;SDS011;2237;51.870;6.160;2022-10-18T12:26:14;4.97;;;1.30;;
4448;SDS011;2237;51.870;6.160;2022-10-18T12:28:53;7.60;;;0.73;;
4448;SDS011;2237;51.870;6.160;2022-10-18T12:31:45;5.85;;;0.55;;
4448;SDS011;2237;51.870;6.160;2022-10-18T12:36:54;5.93;;;1.05;;
4448;SDS011;2237;51.870;6.160;2022-10-18T12:39:29;4.57;;;0.65;;
4448;SDS011;2237;51.870;6.160;2022-10-18T12:42:22;4.03;;;0.70;;
4448;SDS011;2237;51.870;6.160;2022-10-18T12:44:59;3.70;;;0.88;;
4448;SDS011;2237;51.870;6.160;2022-10-18T12:47:46;3.03;;;0.60;;
4448;SDS011;2237;51.870;6.160;2022-10-18T12:50:24;3.97;;;0.68;;
4448;SDS011;2237;51.870;6.160;2022-10-18T12:55:36;3.90;;;0.68;;
4448;SDS011;2237;51.870;6.160;2022-10-18T12:58:27;4.15;;;0.52;;
4448;SDS011;2237;51.870;6.160;2022-10-18T13:00:54;5.65;;;1.08;;
4448;SDS011;2237;51.870;6.160;2022-10-18T13:28:53;4.78;;;0.95;;
4448;SDS011;2237;51.870;6.160;2022-10-18T13:31:28;5.05;;;0.82;;
4448;SDS011;2237;51.870;6.160;2022-10-18T13:37:03;5.85;;;1.00;;
4448;SDS011;2237;51.870;6.160;2022-10-18T13:39:43;5.93;;;1.13;;
4448;SDS011;2237;51.870;6.160;2022-10-18T13:44:40;3.58;;;1.00;;
4448;SDS011;2237;51.870;6.160;2022-10-18T13:47:15;4.82;;;1.10;;
4448;SDS011;2237;51.870;6.160;2022-10-18T13:55:58;6.13;;;0.90;;
4448;SDS011;2237;51.870;6.160;2022-10-18T13:58:51;4.78;;;0.73;;
4448;SDS011;2237;51.870;6.160;2022-10-18T14:04:38;2.95;;;0.70;;
4448;SDS011;2237;51.870;6.160;2022-10-18T14:07:14;7.55;;;0.93;;
4448;SDS011;2237;51.870;6.160;2022-10-18T14:09:47;5.10;;;1.48;;
4448;SDS011;2237;51.870;6.160;2022-10-18T14:14:54;3.92;;;0.70;;
4448;SDS011;2237;51.870;6.160;2022-10-18T14:19:59;6.47;;;1.05;;
4448;SDS011;2237;51.870;6.160;2022-10-18T14:25:31;9.40;;;1.00;;
4448;SDS011;2237;51.870;6.160;2022-10-18T14:28:11;4.03;;;0.80;;
4448;SDS011;2237;51.870;6.160;2022-10-18T14:36:01;4.90;;;0.80;;
4448;SDS011;2237;51.870;6.160;2022-10-18T14:38:36;3.50;;;0.82;;
4448;SDS011;2237;51.870;6.160;2022-10-18T14:41:12;2.90;;;0.73;;
4448;SDS011;2237;51.870;6.160;2022-10-18T14:43:45;3.00;;;0.50;;
4448;SDS011;2237;51.870;6.160;2022-10-18T14:46:29;2.17;;;0.70;;
4448;SDS011;2237;51.870;6.160;2022-10-18T14:49:00;2.35;;;0.57;;
4448;SDS011;2237;51.870;6.160;2022-10-18T14:51:30;2.25;;;0.65;;
4448;SDS011;2237;51.870;6.160;2022-10-18T14:53:59;2.83;;;0.40;;
4448;SDS011;2237;51.870;6.160;2022-10-18T14:56:27;4.25;;;0.73;;
4448;SDS011;2237;51.870;6.160;2022-10-18T14:58:56;4.28;;;0.60;;
4448;SDS011;2237;51.870;6.160;2022-10-18T15:01:28;5.78;;;0.60;;
4448;SDS011;2237;51.870;6.160;2022-10-18T15:04:15;4.43;;;0.80;;
4448;SDS011;2237;51.870;6.160;2022-10-18T15:06:42;2.75;;;0.40;;
4448;SDS011;2237;51.870;6.160;2022-10-18T15:09:09;3.53;;;0.90;;
4448;SDS011;2237;51.870;6.160;2022-10-18T15:11:38;5.20;;;0.70;;
4448;SDS011;2237;51.870;6.160;2022-10-18T15:14:08;3.92;;;0.60;;
4448;SDS011;2237;51.870;6.160;2022-10-18T15:16:39;2.60;;;0.77;;
4448;SDS011;2237;51.870;6.160;2022-10-18T15:19:21;6.97;;;0.90;;
4448;SDS011;2237;51.870;6.160;2022-10-18T15:21:59;2.08;;;0.38;;
4448;SDS011;2237;51.870;6.160;2022-10-18T15:27:45;4.70;;;0.75;;
4448;SDS011;2237;51.870;6.160;2022-10-18T15:32:49;2.65;;;0.50;;
4448;SDS011;2237;51.870;6.160;2022-10-18T15:35:21;2.63;;;0.68;;
4448;SDS011;2237;51.870;6.160;2022-10-18T15:37:51;3.40;;;1.05;;
4448;SDS011;2237;51.870;6.160;2022-10-18T15:42:49;8.32;;;0.60;;
4448;SDS011;2237;51.870;6.160;2022-10-18T15:45:25;3.97;;;0.70;;
4448;SDS011;2237;51.870;6.160;2022-10-18T15:58:38;4.75;;;0.63;;
4448;SDS011;2237;51.870;6.160;2022-10-18T16:01:21;6.18;;;0.70;;
4448;SDS011;2237;51.870;6.160;2022-10-18T16:03:49;4.32;;;0.88;;
4448;SDS011;2237;51.870;6.160;2022-10-18T16:06:16;3.55;;;0.85;;
4448;SDS011;2237;51.870;6.160;2022-10-18T16:08:47;3.75;;;0.70;;
4448;SDS011;2237;51.870;6.160;2022-10-18T16:11:16;2.53;;;0.80;;
4448;SDS011;2237;51.870;6.160;2022-10-18T16:13:45;3.70;;;1.13;;
4448;SDS011;2237;51.870;6.160;2022-10-18T16:16:29;2.83;;;0.70;;
4448;SDS011;2237;51.870;6.160;2022-10-18T16:18:56;4.88;;;1.00;;
4448;SDS011;2237;51.870;6.160;2022-10-18T16:21:33;2.90;;;0.60;;
4448;SDS011;2237;51.870;6.160;2022-10-18T16:24:01;10.02;;;0.90;;
4448;SDS011;2237;51.870;6.160;2022-10-18T16:26:28;6.55;;;0.88;;
4448;SDS011;2237;51.870;6.160;2022-10-18T16:28:55;5.22;;;1.55;;
4448;SDS011;2237;51.870;6.160;2022-10-18T16:31:24;4.50;;;0.85;;
4448;SDS011;2237;51.870;6.160;2022-10-18T16:34:04;3.40;;;0.85;;
4448;SDS011;2237;51.870;6.160;2022-10-18T16:39:14;10.50;;;1.08;;
4448;SDS011;2237;51.870;6.160;2022-10-18T16:41:43;4.82;;;0.77;;
4448;SDS011;2237;51.870;6.160;2022-10-18T16:44:09;7.72;;;1.35;;
4448;SDS011;2237;51.870;6.160;2022-10-18T16:46:36;3.63;;;0.55;;
4448;SDS011;2237;51.870;6.160;2022-10-18T16:49:04;4.53;;;0.88;;
4448;SDS011;2237;51.870;6.160;2022-10-18T16:51:30;5.22;;;0.95;;
4448;SDS011;2237;51.870;6.160;2022-10-18T16:53:57;7.22;;;1.10;;
4448;SDS011;2237;51.870;6.160;2022-10-18T16:56:24;6.97;;;1.08;;
4448;SDS011;2237;51.870;6.160;2022-10-18T16:58:53;7.35;;;1.10;;
4448;SDS011;2237;51.870;6.160;2022-10-18T17:01:20;7.63;;;1.67;;
4448;SDS011;2237;51.870;6.160;2022-10-18T17:03:48;6.22;;;1.90;;
4448;SDS011;2237;51.870;6.160;2022-10-18T17:06:27;7.75;;;1.73;;
4448;SDS011;2237;51.870;6.160;2022-10-18T17:08:55;9.20;;;1.98;;
4448;SDS011;2237;51.870;6.160;2022-10-18T17:11:22;9.52;;;2.25;;
4448;SDS011;2237;51.870;6.160;2022-10-18T17:13:54;11.20;;;3.13;;
4448;SDS011;2237;51.870;6.160;2022-10-18T17:16:25;9.30;;;2.50;;
4448;SDS011;2237;51.870;6.160;2022-10-18T17:18:57;6.72;;;2.20;;
4448;SDS011;2237;51.870;6.160;2022-10-18T17:21:25;7.47;;;2.10;;
4448;SDS011;2237;51.870;6.160;2022-10-18T17:23:53;10.25;;;1.98;;
4448;SDS011;2237;51.870;6.160;2022-10-18T17:26:20;9.73;;;1.45;;
4448;SDS011;2237;51.870;6.160;2022-10-18T17:29:03;4.20;;;1.27;;
4448;SDS011;2237;51.870;6.160;2022-10-18T17:31:31;6.75;;;1.10;;
4448;SDS011;2237;51.870;6.160;2022-10-18T17:33:58;9.80;;;1.52;;
4448;SDS011;2237;51.870;6.160;2022-10-18T17:36:27;11.00;;;2.20;;
4448;SDS011;2237;51.870;6.160;2022-10-18T17:38:55;7.03;;;2.00;;
4448;SDS011;2237;51.870;6.160;2022-10-18T17:41:21;7.57;;;1.92;;
4448;SDS011;2237;51.870;6.160;2022-10-18T17:43:48;7.68;;;2.08;;
4448;SDS011;2237;51.870;6.160;2022-10-18T17:46:15;5.20;;;1.60;;
4448;SDS011;2237;51.870;6.160;2022-10-18T17:48:42;9.40;;;1.70;;
4448;SDS011;2237;51.870;6.160;2022-10-18T17:51:10;9.25;;;1.60;;
4448;SDS011;2237;51.870;6.160;2022-10-18T17:53:38;6.97;;;1.40;;
4448;SDS011;2237;51.870;6.160;2022-10-18T17:56:08;6.28;;;1.23;;
4448;SDS011;2237;51.870;6.160;2022-10-18T17:58:35;16.52;;;1.98;;
4448;SDS011;2237;51.870;6.160;2022-10-18T18:01:09;7.10;;;1.30;;
4448;SDS011;2237;51.870;6.160;2022-10-18T18:03:45;9.00;;;1.45;;
4448;SDS011;2237;51.870;6.160;2022-10-18T18:08:41;12.98;;;3.38;;
4448;SDS011;2237;51.870;6.160;2022-10-18T18:11:08;18.02;;;4.10;;
4448;SDS011;2237;51.870;6.160;2022-10-18T18:13:34;15.30;;;3.10;;
4448;SDS011;2237;51.870;6.160;2022-10-18T18:18:41;7.20;;;2.10;;